createdAt,value
2023-05-22T00:04:13.989Z,6.30
2023-05-22T00:09:21.318Z,7.80
2023-05-22T00:14:28.527Z,6.80
2023-05-22T00:19:35.973Z,6.30
2023-05-22T00:24:43.243Z,6.80
2023-05-22T00:29:50.521Z,6.10
2023-05-22T00:34:57.628Z,6.70
2023-05-22T00:40:06.220Z,6.70
2023-05-22T00:45:15.510Z,6.00
2023-05-22T00:50:23.426Z,7.80
2023-05-22T01:00:37.105Z,6.90
2023-05-22T01:05:44.622Z,7.70
2023-05-22T01:11:10.618Z,7.20
2023-05-22T01:16:26.485Z,7.30
2023-05-22T01:21:46.443Z,6.90
2023-05-22T01:27:44.173Z,7.10
2023-05-22T01:32:56.789Z,7.60
2023-05-22T01:38:06.077Z,7.60
2023-05-22T01:43:13.998Z,7.70
2023-05-22T01:48:21.070Z,7.80
2023-05-22T01:53:35.317Z,8.40
2023-05-22T01:58:50.532Z,7.50
2023-05-22T02:04:00.247Z,9.50
2023-05-22T02:09:09.285Z,8.10
2023-05-22T02:14:19.865Z,7.90
2023-05-22T02:19:27.342Z,8.50
2023-05-22T02:24:36.861Z,8.40
2023-05-22T02:29:43.989Z,8.30
2023-05-22T02:34:54.034Z,8.10
2023-05-22T02:40:02.367Z,8.40
2023-05-22T02:50:16.919Z,8.10
2023-05-22T02:55:24.140Z,8.90
2023-05-22T03:00:31.437Z,8.40
2023-05-22T03:05:38.797Z,8.20
2023-05-22T03:10:47.972Z,8.10
2023-05-22T03:15:55.195Z,7.40
2023-05-22T03:21:03.731Z,8.40
2023-05-22T03:26:11.467Z,10.00
2023-05-22T03:31:20.179Z,9.10
2023-05-22T03:36:47.507Z,9.40
2023-05-22T03:41:56.400Z,9.40
2023-05-22T03:47:04.732Z,8.40
2023-05-22T03:52:12.891Z,8.00
2023-05-22T04:02:30.427Z,7.20
2023-05-22T04:07:37.721Z,8.40
2023-05-22T04:12:44.815Z,8.80
2023-05-22T04:17:54.959Z,9.60
2023-05-22T04:23:02.257Z,7.40
2023-05-22T04:28:13.236Z,7.90
2023-05-22T04:33:20.448Z,7.90
2023-05-22T04:38:27.620Z,8.80
2023-05-22T04:43:34.739Z,8.70
2023-05-22T04:48:42.193Z,8.00
2023-05-22T04:53:50.045Z,7.70
2023-05-22T04:58:57.539Z,8.20
2023-05-22T05:04:05.203Z,11.60
2023-05-22T05:09:12.422Z,8.10
2023-05-22T05:19:28.131Z,7.80
2023-05-22T05:24:35.456Z,8.10
2023-05-22T05:29:47.930Z,7.80
2023-05-22T05:35:18.488Z,7.90
2023-05-22T05:40:39.467Z,8.00
2023-05-22T05:45:49.520Z,8.30
2023-05-22T05:50:59.512Z,7.40
2023-05-22T05:56:10.854Z,7.50
2023-05-22T06:01:20.052Z,8.50
2023-05-22T06:06:29.939Z,7.50
2023-05-22T06:17:01.724Z,6.60
2023-05-22T06:22:09.159Z,6.90
2023-05-22T06:27:18.155Z,7.50
2023-05-22T06:32:25.657Z,6.30
2023-05-22T06:37:35.874Z,5.50
2023-05-22T06:42:44.607Z,7.00
2023-05-22T06:48:21.199Z,5.70
2023-05-22T06:53:50.687Z,5.70
2023-05-22T06:59:00.955Z,5.50
2023-05-22T07:04:22.237Z,5.00
2023-05-22T07:09:38.109Z,5.40
2023-05-22T07:14:45.229Z,4.60
2023-05-22T07:19:53.435Z,5.20
2023-05-22T07:25:01.340Z,5.50
2023-05-22T07:30:13.673Z,5.90
2023-05-22T07:35:21.241Z,5.50
2023-05-22T07:40:28.754Z,5.70
2023-05-22T07:45:36.089Z,4.90
2023-05-22T07:50:45.713Z,5.60
2023-05-22T07:55:54.296Z,4.70
2023-05-22T08:01:02.888Z,5.00
2023-05-22T08:06:10.497Z,4.80
2023-05-22T08:11:17.841Z,3.90
2023-05-22T08:16:25.155Z,3.70
2023-05-22T08:21:34.670Z,3.40
2023-05-22T08:26:43.389Z,3.10
2023-05-22T08:31:50.668Z,4.10
2023-05-22T08:37:00.982Z,3.80
2023-05-22T08:42:09.380Z,3.70
2023-05-22T08:47:31.102Z,3.10
2023-05-22T08:52:48.430Z,3.30
2023-05-22T08:57:58.060Z,3.40
2023-05-22T09:03:06.910Z,3.80
2023-05-22T09:08:20.485Z,3.10
2023-05-22T09:13:30.131Z,3.30
2023-05-22T09:18:39.590Z,3.60
2023-05-22T09:23:52.218Z,2.90
2023-05-22T09:29:01.924Z,3.10
2023-05-22T09:34:10.480Z,2.70
2023-05-22T09:39:17.633Z,3.20
2023-05-22T09:44:27.954Z,2.70
2023-05-22T09:49:42.238Z,3.00
2023-05-22T09:54:55.686Z,2.70
2023-05-22T10:00:09.917Z,2.50
2023-05-22T10:05:22.501Z,2.70
2023-05-22T10:10:29.710Z,3.20
2023-05-22T10:15:39.351Z,2.90
2023-05-22T10:20:47.167Z,3.00
2023-05-22T10:25:54.962Z,3.50
2023-05-22T10:31:07.792Z,3.20
2023-05-22T10:36:56.076Z,3.10
2023-05-22T10:42:12.769Z,3.60
2023-05-22T10:47:21.198Z,2.60
2023-05-22T10:52:28.579Z,2.90
2023-05-22T10:57:38.164Z,2.80
2023-05-22T11:02:47.016Z,2.70
2023-05-22T11:08:12.164Z,2.50
2023-05-22T11:13:20.621Z,3.20
2023-05-22T11:18:31.448Z,2.90
2023-05-22T11:23:40.448Z,3.10
2023-05-22T11:28:53.366Z,3.00
2023-05-22T11:34:01.199Z,3.50
2023-05-22T11:39:09.297Z,2.80
2023-05-22T11:44:16.696Z,2.80
2023-05-22T11:49:25.679Z,3.60
2023-05-22T11:54:38.634Z,3.30
2023-05-22T11:59:49.367Z,3.10
2023-05-22T12:04:58.906Z,3.00
2023-05-22T12:10:08.552Z,3.00
2023-05-22T12:15:19.640Z,3.10
2023-05-22T12:20:32.260Z,3.20
2023-05-22T12:25:39.923Z,3.10
2023-05-22T12:30:55.989Z,2.80
2023-05-22T12:36:09.001Z,2.80
2023-05-22T12:41:16.242Z,3.10
2023-05-22T12:46:23.460Z,3.60
2023-05-22T12:56:37.578Z,3.10
2023-05-22T13:01:45.164Z,2.70
2023-05-22T13:06:52.308Z,2.70
2023-05-22T13:17:05.373Z,2.90
2023-05-22T13:22:12.540Z,2.90
2023-05-22T13:32:26.899Z,3.30
2023-05-22T13:37:34.100Z,3.30
2023-05-22T13:47:50.493Z,3.30
2023-05-22T13:52:58.812Z,3.00
2023-05-22T13:58:06.552Z,3.40
2023-05-22T14:03:17.807Z,2.60
2023-05-22T14:08:26.153Z,3.20
2023-05-22T14:13:36.095Z,3.10
2023-05-22T14:18:43.508Z,3.10
2023-05-22T14:23:52.205Z,2.80
2023-05-22T14:29:02.562Z,3.10
2023-05-22T14:34:09.733Z,3.20
2023-05-22T14:44:22.878Z,3.10
2023-05-22T14:49:30.138Z,2.70
2023-05-22T14:59:43.614Z,3.20
2023-05-22T15:09:56.726Z,2.50
2023-05-22T15:15:03.922Z,3.20
2023-05-22T15:20:14.567Z,3.30
2023-05-22T15:25:21.603Z,3.70
2023-05-22T15:30:28.802Z,3.00
2023-05-22T15:35:35.900Z,2.70
2023-05-22T15:40:43.629Z,3.10
2023-05-22T15:45:52.044Z,3.00
2023-05-22T15:50:59.332Z,2.80
2023-05-22T16:01:13.628Z,3.50
2023-05-22T16:06:23.118Z,3.60
2023-05-22T16:11:30.303Z,3.00
2023-05-22T16:26:51.394Z,3.40
2023-05-22T16:31:59.410Z,3.10
2023-05-22T16:37:08.319Z,4.00
2023-05-22T16:42:17.037Z,3.00
2023-05-22T16:47:24.605Z,3.90
2023-05-22T16:52:33.200Z,3.00
2023-05-22T16:57:41.210Z,3.10
2023-05-22T17:02:48.591Z,2.90
2023-05-22T17:07:56.127Z,2.80
2023-05-22T17:13:03.352Z,3.50
2023-05-22T17:18:11.759Z,3.30
2023-05-22T17:23:19.271Z,3.30
2023-05-22T17:28:26.643Z,3.40
2023-05-22T17:33:34.149Z,3.90
2023-05-22T17:38:41.465Z,3.80
2023-05-22T17:43:49.617Z,3.50
2023-05-22T17:48:56.716Z,3.70
2023-05-22T17:59:11.121Z,3.60
2023-05-22T18:04:18.302Z,4.00
2023-05-22T18:09:25.456Z,3.50
2023-05-22T18:14:32.639Z,3.70
2023-05-22T18:19:42.375Z,8.00
2023-05-22T18:24:49.673Z,4.80
2023-05-22T18:29:56.809Z,6.30
2023-05-22T18:35:04.848Z,5.50
2023-05-22T18:40:13.899Z,4.70
2023-05-22T18:45:21.092Z,5.00
2023-05-22T18:50:28.665Z,6.30
2023-05-22T18:55:36.191Z,7.10
2023-05-22T19:00:46.512Z,6.30
2023-05-22T19:05:55.680Z,5.50
2023-05-22T19:11:04.176Z,6.50
2023-05-22T19:16:12.671Z,5.80
2023-05-22T19:21:19.977Z,7.60
2023-05-22T19:26:27.282Z,5.90
2023-05-22T19:31:34.512Z,6.40
2023-05-22T19:36:42.116Z,22.50
2023-05-22T19:41:51.392Z,5.80
2023-05-22T19:46:58.442Z,6.40
2023-05-22T19:52:06.786Z,6.00
2023-05-22T19:57:14.135Z,5.60
2023-05-22T20:02:21.567Z,5.90
2023-05-22T20:07:28.717Z,9.50
2023-05-22T20:12:35.903Z,6.00
2023-05-22T20:17:47.677Z,5.50
2023-05-22T20:22:55.274Z,6.60
2023-05-22T20:28:04.461Z,6.40
2023-05-22T20:33:12.032Z,6.00
2023-05-22T20:38:20.252Z,6.00
2023-05-22T20:43:34.711Z,6.30
2023-05-22T20:48:47.038Z,6.50
2023-05-22T20:53:54.299Z,6.70
2023-05-22T20:59:01.580Z,6.00
2023-05-22T21:04:08.874Z,6.40
2023-05-22T21:09:16.246Z,6.00
2023-05-22T21:14:23.510Z,5.70
2023-05-22T21:19:30.798Z,6.20
2023-05-22T21:24:38.124Z,6.20
2023-05-22T21:29:45.258Z,5.80
2023-05-22T21:34:52.443Z,5.20
2023-05-22T21:39:59.578Z,5.60
2023-05-22T21:45:10.924Z,15.30
2023-05-22T21:50:18.152Z,6.30
2023-05-22T21:55:25.691Z,5.70
2023-05-22T22:00:33.044Z,5.80
2023-05-22T22:05:43.410Z,5.50
2023-05-22T22:10:53.707Z,6.30
2023-05-22T22:16:06.385Z,6.10
2023-05-22T22:21:14.069Z,5.20
2023-05-22T22:26:21.417Z,6.40
2023-05-22T22:31:28.723Z,6.20
2023-05-22T22:36:36.845Z,6.60
2023-05-22T22:41:45.063Z,5.60
2023-05-22T22:46:52.149Z,6.60
2023-05-22T22:51:59.674Z,5.20
2023-05-22T23:02:12.443Z,6.20
2023-05-22T23:07:19.552Z,6.10
2023-05-22T23:12:26.772Z,6.40
2023-05-22T23:17:34.029Z,6.80
2023-05-22T23:22:41.325Z,7.50
2023-05-22T23:27:48.453Z,6.00
2023-05-22T23:32:55.892Z,6.00
2023-05-22T23:38:03.751Z,6.60
2023-05-22T23:48:16.654Z,6.70
2023-05-22T23:53:23.744Z,6.30
2023-05-22T23:58:32.273Z,6.20
